sensor_id;sensor_type;location;lat;lon;timestamp;P1;durP1;ratioP1;P2;durP2;ratioP2
21181;SDS011;10749;46.296;7.524;2023-12-20T00:01:18;9.00;;;5.00;;
21181;SDS011;10749;46.296;7.524;2023-12-20T00:03:43;11.43;;;5.37;;
21181;SDS011;10749;46.296;7.524;2023-12-20T00:06:09;7.83;;;5.17;;
21181;SDS011;10749;46.296;7.524;2023-12-20T00:08:34;10.30;;;5.30;;
21181;SDS011;10749;46.296;7.524;2023-12-20T00:10:59;8.43;;;5.10;;
21181;SDS011;10749;46.296;7.524;2023-12-20T00:13:25;8.53;;;5.30;;
21181;SDS011;10749;46.296;7.524;2023-12-20T00:15:50;8.13;;;5.03;;
21181;SDS011;10749;46.296;7.524;2023-12-20T00:18:15;8.60;;;5.47;;
21181;SDS011;10749;46.296;7.524;2023-12-20T00:20:41;8.43;;;6.20;;
21181;SDS011;10749;46.296;7.524;2023-12-20T00:23:06;8.37;;;5.20;;
21181;SDS011;10749;46.296;7.524;2023-12-20T00:25:32;8.03;;;5.07;;
21181;SDS011;10749;46.296;7.524;2023-12-20T00:27:58;9.00;;;4.97;;
21181;SDS011;10749;46.296;7.524;2023-12-20T00:30:23;7.63;;;4.97;;
21181;SDS011;10749;46.296;7.524;2023-12-20T00:32:48;7.50;;;5.20;;
21181;SDS011;10749;46.296;7.524;2023-12-20T00:35:14;10.07;;;5.57;;
21181;SDS011;10749;46.296;7.524;2023-12-20T00:37:40;9.53;;;4.97;;
21181;SDS011;10749;46.296;7.524;2023-12-20T00:40:05;7.47;;;5.03;;
21181;SDS011;10749;46.296;7.524;2023-12-20T00:42:31;7.00;;;4.70;;
21181;SDS011;10749;46.296;7.524;2023-12-20T00:44:58;11.13;;;5.50;;
21181;SDS011;10749;46.296;7.524;2023-12-20T00:47:24;9.90;;;4.80;;
21181;SDS011;10749;46.296;7.524;2023-12-20T00:49:49;11.73;;;5.47;;
21181;SDS011;10749;46.296;7.524;2023-12-20T00:52:14;12.10;;;5.33;;
21181;SDS011;10749;46.296;7.524;2023-12-20T00:54:42;8.70;;;4.60;;
21181;SDS011;10749;46.296;7.524;2023-12-20T00:57:07;8.27;;;5.10;;
21181;SDS011;10749;46.296;7.524;2023-12-20T00:59:32;9.00;;;4.90;;
21181;SDS011;10749;46.296;7.524;2023-12-20T01:01:58;9.63;;;5.67;;
21181;SDS011;10749;46.296;7.524;2023-12-20T01:04:23;6.90;;;5.07;;
21181;SDS011;10749;46.296;7.524;2023-12-20T01:06:48;10.80;;;5.27;;
21181;SDS011;10749;46.296;7.524;2023-12-20T01:09:13;7.37;;;5.33;;
21181;SDS011;10749;46.296;7.524;2023-12-20T01:11:39;9.20;;;5.13;;
21181;SDS011;10749;46.296;7.524;2023-12-20T01:14:04;9.00;;;5.50;;
21181;SDS011;10749;46.296;7.524;2023-12-20T01:16:30;7.27;;;5.10;;
21181;SDS011;10749;46.296;7.524;2023-12-20T01:18:55;8.27;;;5.27;;
21181;SDS011;10749;46.296;7.524;2023-12-20T01:21:20;8.27;;;5.07;;
21181;SDS011;10749;46.296;7.524;2023-12-20T01:23:46;8.23;;;5.30;;
21181;SDS011;10749;46.296;7.524;2023-12-20T01:26:12;8.90;;;5.33;;
21181;SDS011;10749;46.296;7.524;2023-12-20T01:28:37;8.43;;;4.93;;
21181;SDS011;10749;46.296;7.524;2023-12-20T01:31:03;7.77;;;4.50;;
21181;SDS011;10749;46.296;7.524;2023-12-20T01:33:29;7.60;;;4.93;;
21181;SDS011;10749;46.296;7.524;2023-12-20T01:35:54;10.63;;;4.90;;
21181;SDS011;10749;46.296;7.524;2023-12-20T01:38:19;8.40;;;5.00;;
21181;SDS011;10749;46.296;7.524;2023-12-20T01:40:45;6.60;;;4.47;;
21181;SDS011;10749;46.296;7.524;2023-12-20T01:43:10;7.00;;;4.67;;
21181;SDS011;10749;46.296;7.524;2023-12-20T01:45:37;6.33;;;4.47;;
21181;SDS011;10749;46.296;7.524;2023-12-20T01:48:02;9.50;;;5.10;;
21181;SDS011;10749;46.296;7.524;2023-12-20T01:50:29;7.10;;;4.73;;
21181;SDS011;10749;46.296;7.524;2023-12-20T01:52:56;8.20;;;4.80;;
21181;SDS011;10749;46.296;7.524;2023-12-20T01:55:25;6.83;;;4.63;;
21181;SDS011;10749;46.296;7.524;2023-12-20T01:57:52;8.50;;;4.73;;
21181;SDS011;10749;46.296;7.524;2023-12-20T02:00:18;9.80;;;4.60;;
21181;SDS011;10749;46.296;7.524;2023-12-20T02:02:48;7.00;;;4.70;;
21181;SDS011;10749;46.296;7.524;2023-12-20T02:05:15;5.03;;;3.80;;
21181;SDS011;10749;46.296;7.524;2023-12-20T02:07:41;7.33;;;4.70;;
21181;SDS011;10749;46.296;7.524;2023-12-20T02:10:06;6.50;;;4.43;;
21181;SDS011;10749;46.296;7.524;2023-12-20T02:12:32;8.13;;;4.40;;
21181;SDS011;10749;46.296;7.524;2023-12-20T02:14:57;6.63;;;4.60;;
21181;SDS011;10749;46.296;7.524;2023-12-20T02:17:23;8.27;;;4.83;;
21181;SDS011;10749;46.296;7.524;2023-12-20T02:19:49;8.23;;;4.50;;
21181;SDS011;10749;46.296;7.524;2023-12-20T02:22:14;10.03;;;4.53;;
21181;SDS011;10749;46.296;7.524;2023-12-20T02:24:40;8.73;;;4.57;;
21181;SDS011;10749;46.296;7.524;2023-12-20T02:27:05;6.43;;;4.43;;
21181;SDS011;10749;46.296;7.524;2023-12-20T02:29:32;6.37;;;4.33;;
21181;SDS011;10749;46.296;7.524;2023-12-20T02:31:58;6.17;;;4.13;;
21181;SDS011;10749;46.296;7.524;2023-12-20T02:34:23;6.77;;;4.30;;
21181;SDS011;10749;46.296;7.524;2023-12-20T02:36:48;7.27;;;3.87;;
21181;SDS011;10749;46.296;7.524;2023-12-20T02:39:14;6.17;;;4.17;;
21181;SDS011;10749;46.296;7.524;2023-12-20T02:41:39;7.43;;;4.50;;
21181;SDS011;10749;46.296;7.524;2023-12-20T02:44:04;7.50;;;4.60;;
21181;SDS011;10749;46.296;7.524;2023-12-20T02:46:29;8.57;;;4.33;;
21181;SDS011;10749;46.296;7.524;2023-12-20T02:48:55;8.13;;;4.47;;
21181;SDS011;10749;46.296;7.524;2023-12-20T02:51:20;8.20;;;4.63;;
21181;SDS011;10749;46.296;7.524;2023-12-20T02:53:45;7.20;;;4.47;;
21181;SDS011;10749;46.296;7.524;2023-12-20T02:56:11;6.97;;;4.47;;
21181;SDS011;10749;46.296;7.524;2023-12-20T02:58:36;8.63;;;4.93;;
21181;SDS011;10749;46.296;7.524;2023-12-20T03:01:01;8.00;;;4.97;;
21181;SDS011;10749;46.296;7.524;2023-12-20T03:03:27;9.87;;;5.00;;
21181;SDS011;10749;46.296;7.524;2023-12-20T03:05:52;9.03;;;5.00;;
21181;SDS011;10749;46.296;7.524;2023-12-20T03:08:17;8.50;;;4.83;;
21181;SDS011;10749;46.296;7.524;2023-12-20T03:10:42;8.40;;;4.47;;
21181;SDS011;10749;46.296;7.524;2023-12-20T03:13:08;7.50;;;4.80;;
21181;SDS011;10749;46.296;7.524;2023-12-20T03:15:33;10.37;;;4.80;;
21181;SDS011;10749;46.296;7.524;2023-12-20T03:17:58;10.73;;;4.77;;
21181;SDS011;10749;46.296;7.524;2023-12-20T03:20:24;7.47;;;4.87;;
21181;SDS011;10749;46.296;7.524;2023-12-20T03:22:51;7.33;;;4.93;;
21181;SDS011;10749;46.296;7.524;2023-12-20T03:25:16;7.57;;;4.77;;
21181;SDS011;10749;46.296;7.524;2023-12-20T03:27:41;7.47;;;4.77;;
21181;SDS011;10749;46.296;7.524;2023-12-20T03:30:07;7.13;;;4.50;;
21181;SDS011;10749;46.296;7.524;2023-12-20T03:32:32;8.33;;;5.10;;
21181;SDS011;10749;46.296;7.524;2023-12-20T03:34:57;7.30;;;4.80;;
21181;SDS011;10749;46.296;7.524;2023-12-20T03:37:23;7.47;;;5.00;;
21181;SDS011;10749;46.296;7.524;2023-12-20T03:39:48;7.00;;;4.63;;
21181;SDS011;10749;46.296;7.524;2023-12-20T03:42:13;6.77;;;4.47;;
21181;SDS011;10749;46.296;7.524;2023-12-20T03:44:39;9.00;;;5.27;;
21181;SDS011;10749;46.296;7.524;2023-12-20T03:47:05;9.07;;;4.77;;
21181;SDS011;10749;46.296;7.524;2023-12-20T03:49:30;6.13;;;4.60;;
21181;SDS011;10749;46.296;7.524;2023-12-20T03:51:55;9.37;;;5.47;;
21181;SDS011;10749;46.296;7.524;2023-12-20T03:54:21;7.07;;;4.77;;
21181;SDS011;10749;46.296;7.524;2023-12-20T03:56:46;6.27;;;4.60;;
21181;SDS011;10749;46.296;7.524;2023-12-20T03:59:11;7.80;;;5.03;;
21181;SDS011;10749;46.296;7.524;2023-12-20T04:01:36;6.73;;;4.40;;
21181;SDS011;10749;46.296;7.524;2023-12-20T04:04:02;6.63;;;4.57;;
21181;SDS011;10749;46.296;7.524;2023-12-20T04:06:27;7.20;;;4.63;;
21181;SDS011;10749;46.296;7.524;2023-12-20T04:08:53;8.33;;;4.53;;
21181;SDS011;10749;46.296;7.524;2023-12-20T04:11:18;9.03;;;5.20;;
21181;SDS011;10749;46.296;7.524;2023-12-20T04:13:43;7.23;;;4.63;;
21181;SDS011;10749;46.296;7.524;2023-12-20T04:16:08;8.57;;;5.40;;
21181;SDS011;10749;46.296;7.524;2023-12-20T04:18:34;8.03;;;5.20;;
21181;SDS011;10749;46.296;7.524;2023-12-20T04:20:59;8.57;;;5.17;;
21181;SDS011;10749;46.296;7.524;2023-12-20T04:23:24;9.57;;;5.23;;
21181;SDS011;10749;46.296;7.524;2023-12-20T04:25:50;10.67;;;5.33;;
21181;SDS011;10749;46.296;7.524;2023-12-20T04:28:15;7.53;;;5.00;;
21181;SDS011;10749;46.296;7.524;2023-12-20T04:30:41;7.90;;;4.90;;
21181;SDS011;10749;46.296;7.524;2023-12-20T04:33:07;7.00;;;5.27;;
21181;SDS011;10749;46.296;7.524;2023-12-20T04:35:32;8.27;;;5.00;;
21181;SDS011;10749;46.296;7.524;2023-12-20T04:37:57;11.00;;;5.13;;
21181;SDS011;10749;46.296;7.524;2023-12-20T04:40:22;9.47;;;5.47;;
21181;SDS011;10749;46.296;7.524;2023-12-20T04:42:48;10.23;;;5.10;;
21181;SDS011;10749;46.296;7.524;2023-12-20T04:45:13;7.23;;;5.03;;
21181;SDS011;10749;46.296;7.524;2023-12-20T04:47:41;8.67;;;4.93;;
21181;SDS011;10749;46.296;7.524;2023-12-20T04:50:07;8.60;;;5.83;;
21181;SDS011;10749;46.296;7.524;2023-12-20T04:52:32;9.03;;;6.10;;
21181;SDS011;10749;46.296;7.524;2023-12-20T04:54:58;11.83;;;6.90;;
21181;SDS011;10749;46.296;7.524;2023-12-20T04:57:24;10.50;;;7.07;;
21181;SDS011;10749;46.296;7.524;2023-12-20T04:59:49;8.93;;;6.13;;
21181;SDS011;10749;46.296;7.524;2023-12-20T05:02:14;10.77;;;5.93;;
21181;SDS011;10749;46.296;7.524;2023-12-20T05:04:40;8.27;;;5.30;;
21181;SDS011;10749;46.296;7.524;2023-12-20T05:07:06;7.30;;;5.03;;
21181;SDS011;10749;46.296;7.524;2023-12-20T05:09:31;7.70;;;5.17;;
21181;SDS011;10749;46.296;7.524;2023-12-20T05:11:57;7.37;;;4.50;;
21181;SDS011;10749;46.296;7.524;2023-12-20T05:14:22;5.93;;;4.10;;
21181;SDS011;10749;46.296;7.524;2023-12-20T05:16:47;7.90;;;4.57;;
21181;SDS011;10749;46.296;7.524;2023-12-20T05:19:12;6.43;;;4.87;;
21181;SDS011;10749;46.296;7.524;2023-12-20T05:21:39;7.57;;;5.03;;
21181;SDS011;10749;46.296;7.524;2023-12-20T05:24:04;8.60;;;4.80;;
21181;SDS011;10749;46.296;7.524;2023-12-20T05:26:30;9.40;;;5.30;;
21181;SDS011;10749;46.296;7.524;2023-12-20T05:28:55;8.63;;;5.30;;
21181;SDS011;10749;46.296;7.524;2023-12-20T05:31:20;6.67;;;5.00;;
21181;SDS011;10749;46.296;7.524;2023-12-20T05:33:46;7.90;;;5.17;;
21181;SDS011;10749;46.296;7.524;2023-12-20T05:36:11;9.77;;;5.27;;
21181;SDS011;10749;46.296;7.524;2023-12-20T05:38:38;10.90;;;5.13;;
21181;SDS011;10749;46.296;7.524;2023-12-20T05:41:04;9.43;;;5.63;;
21181;SDS011;10749;46.296;7.524;2023-12-20T05:43:29;8.70;;;6.63;;
21181;SDS011;10749;46.296;7.524;2023-12-20T05:45:55;8.80;;;6.40;;
21181;SDS011;10749;46.296;7.524;2023-12-20T05:48:20;10.23;;;6.37;;
21181;SDS011;10749;46.296;7.524;2023-12-20T05:50:45;11.73;;;6.43;;
21181;SDS011;10749;46.296;7.524;2023-12-20T05:53:10;9.50;;;5.60;;
21181;SDS011;10749;46.296;7.524;2023-12-20T05:55:36;12.50;;;5.83;;
21181;SDS011;10749;46.296;7.524;2023-12-20T05:58:01;9.70;;;6.00;;
21181;SDS011;10749;46.296;7.524;2023-12-20T06:00:26;9.93;;;5.47;;
21181;SDS011;10749;46.296;7.524;2023-12-20T06:02:52;10.90;;;5.97;;
21181;SDS011;10749;46.296;7.524;2023-12-20T06:05:17;9.33;;;5.77;;
21181;SDS011;10749;46.296;7.524;2023-12-20T06:07:42;9.10;;;5.93;;
21181;SDS011;10749;46.296;7.524;2023-12-20T06:10:08;12.60;;;6.60;;
21181;SDS011;10749;46.296;7.524;2023-12-20T06:12:34;10.10;;;7.13;;
21181;SDS011;10749;46.296;7.524;2023-12-20T06:15:01;10.93;;;6.90;;
21181;SDS011;10749;46.296;7.524;2023-12-20T06:17:26;11.00;;;7.00;;
21181;SDS011;10749;46.296;7.524;2023-12-20T06:19:52;12.13;;;7.67;;
21181;SDS011;10749;46.296;7.524;2023-12-20T06:22:17;11.67;;;7.70;;
21181;SDS011;10749;46.296;7.524;2023-12-20T06:24:42;12.07;;;7.87;;
21181;SDS011;10749;46.296;7.524;2023-12-20T06:27:07;13.80;;;8.20;;
21181;SDS011;10749;46.296;7.524;2023-12-20T06:29:33;12.03;;;9.00;;
21181;SDS011;10749;46.296;7.524;2023-12-20T06:31:59;15.57;;;9.97;;
21181;SDS011;10749;46.296;7.524;2023-12-20T06:34:25;17.37;;;9.67;;
21181;SDS011;10749;46.296;7.524;2023-12-20T06:36:50;13.00;;;7.87;;
21181;SDS011;10749;46.296;7.524;2023-12-20T06:39:15;14.20;;;8.17;;
21181;SDS011;10749;46.296;7.524;2023-12-20T06:41:41;11.03;;;7.97;;
21181;SDS011;10749;46.296;7.524;2023-12-20T06:44:07;10.20;;;7.07;;
21181;SDS011;10749;46.296;7.524;2023-12-20T06:46:33;10.50;;;6.17;;
21181;SDS011;10749;46.296;7.524;2023-12-20T06:48:58;9.80;;;6.50;;
21181;SDS011;10749;46.296;7.524;2023-12-20T06:51:23;13.90;;;6.47;;
21181;SDS011;10749;46.296;7.524;2023-12-20T06:53:50;11.57;;;6.40;;
21181;SDS011;10749;46.296;7.524;2023-12-20T06:56:16;10.30;;;6.80;;
21181;SDS011;10749;46.296;7.524;2023-12-20T06:58:42;9.07;;;6.33;;
21181;SDS011;10749;46.296;7.524;2023-12-20T07:01:10;10.60;;;6.83;;
21181;SDS011;10749;46.296;7.524;2023-12-20T07:03:36;10.53;;;6.97;;
21181;SDS011;10749;46.296;7.524;2023-12-20T07:06:02;9.50;;;6.60;;
21181;SDS011;10749;46.296;7.524;2023-12-20T07:08:27;11.43;;;6.60;;
21181;SDS011;10749;46.296;7.524;2023-12-20T07:10:52;11.57;;;7.27;;
21181;SDS011;10749;46.296;7.524;2023-12-20T07:13:18;11.73;;;6.83;;
21181;SDS011;10749;46.296;7.524;2023-12-20T07:15:43;11.27;;;7.60;;
21181;SDS011;10749;46.296;7.524;2023-12-20T07:18:08;12.33;;;8.07;;
21181;SDS011;10749;46.296;7.524;2023-12-20T07:20:34;12.70;;;8.50;;
21181;SDS011;10749;46.296;7.524;2023-12-20T07:22:59;12.10;;;7.50;;
21181;SDS011;10749;46.296;7.524;2023-12-20T07:25:24;10.97;;;7.93;;
21181;SDS011;10749;46.296;7.524;2023-12-20T07:27:50;11.53;;;8.17;;
21181;SDS011;10749;46.296;7.524;2023-12-20T07:30:15;15.03;;;8.67;;
21181;SDS011;10749;46.296;7.524;2023-12-20T07:32:40;12.07;;;8.13;;
21181;SDS011;10749;46.296;7.524;2023-12-20T07:35:05;13.83;;;8.97;;
21181;SDS011;10749;46.296;7.524;2023-12-20T07:37:31;12.87;;;8.37;;
21181;SDS011;10749;46.296;7.524;2023-12-20T07:39:56;13.03;;;8.30;;
21181;SDS011;10749;46.296;7.524;2023-12-20T07:42:21;13.03;;;7.80;;
21181;SDS011;10749;46.296;7.524;2023-12-20T07:44:47;11.03;;;7.83;;
21181;SDS011;10749;46.296;7.524;2023-12-20T07:47:12;12.37;;;7.07;;
21181;SDS011;10749;46.296;7.524;2023-12-20T07:49:40;10.20;;;6.73;;
21181;SDS011;10749;46.296;7.524;2023-12-20T07:52:06;10.83;;;7.00;;
21181;SDS011;10749;46.296;7.524;2023-12-20T07:54:31;13.37;;;7.17;;
21181;SDS011;10749;46.296;7.524;2023-12-20T07:56:56;12.40;;;7.80;;
21181;SDS011;10749;46.296;7.524;2023-12-20T07:59:22;9.83;;;7.43;;
21181;SDS011;10749;46.296;7.524;2023-12-20T08:01:47;12.33;;;8.20;;
21181;SDS011;10749;46.296;7.524;2023-12-20T08:04:12;15.47;;;8.23;;
21181;SDS011;10749;46.296;7.524;2023-12-20T08:06:38;14.20;;;7.43;;
21181;SDS011;10749;46.296;7.524;2023-12-20T08:09:03;11.63;;;7.77;;
21181;SDS011;10749;46.296;7.524;2023-12-20T08:11:29;13.50;;;8.47;;
21181;SDS011;10749;46.296;7.524;2023-12-20T08:13:54;15.60;;;9.50;;
21181;SDS011;10749;46.296;7.524;2023-12-20T08:16:20;17.37;;;10.60;;
21181;SDS011;10749;46.296;7.524;2023-12-20T08:18:45;16.80;;;9.30;;
21181;SDS011;10749;46.296;7.524;2023-12-20T08:21:11;12.57;;;8.77;;
21181;SDS011;10749;46.296;7.524;2023-12-20T08:23:36;11.03;;;8.20;;
21181;SDS011;10749;46.296;7.524;2023-12-20T08:26:05;14.73;;;9.10;;
21181;SDS011;10749;46.296;7.524;2023-12-20T08:28:33;14.53;;;8.93;;
21181;SDS011;10749;46.296;7.524;2023-12-20T08:30:59;14.83;;;8.77;;
21181;SDS011;10749;46.296;7.524;2023-12-20T08:33:25;12.30;;;8.10;;
21181;SDS011;10749;46.296;7.524;2023-12-20T08:35:50;17.23;;;10.97;;
21181;SDS011;10749;46.296;7.524;2023-12-20T08:38:15;20.33;;;13.17;;
21181;SDS011;10749;46.296;7.524;2023-12-20T08:40:41;11.90;;;8.33;;
21181;SDS011;10749;46.296;7.524;2023-12-20T08:43:07;17.03;;;9.67;;
21181;SDS011;10749;46.296;7.524;2023-12-20T08:45:32;14.90;;;9.70;;
21181;SDS011;10749;46.296;7.524;2023-12-20T08:47:57;13.43;;;8.60;;
21181;SDS011;10749;46.296;7.524;2023-12-20T08:50:23;15.43;;;10.63;;
21181;SDS011;10749;46.296;7.524;2023-12-20T08:52:48;16.17;;;10.67;;
21181;SDS011;10749;46.296;7.524;2023-12-20T08:55:13;15.83;;;10.70;;
21181;SDS011;10749;46.296;7.524;2023-12-20T08:57:41;16.93;;;10.93;;
21181;SDS011;10749;46.296;7.524;2023-12-20T09:00:06;14.03;;;9.83;;
21181;SDS011;10749;46.296;7.524;2023-12-20T09:02:32;13.80;;;8.93;;
21181;SDS011;10749;46.296;7.524;2023-12-20T09:05:00;14.93;;;9.20;;
21181;SDS011;10749;46.296;7.524;2023-12-20T09:07:26;11.93;;;8.93;;
21181;SDS011;10749;46.296;7.524;2023-12-20T09:09:52;13.93;;;10.37;;
21181;SDS011;10749;46.296;7.524;2023-12-20T09:12:18;21.80;;;13.30;;
21181;SDS011;10749;46.296;7.524;2023-12-20T09:14:45;19.87;;;13.00;;
21181;SDS011;10749;46.296;7.524;2023-12-20T09:17:11;16.57;;;11.37;;
21181;SDS011;10749;46.296;7.524;2023-12-20T09:19:37;13.50;;;9.63;;
21181;SDS011;10749;46.296;7.524;2023-12-20T09:22:03;18.77;;;10.23;;
21181;SDS011;10749;46.296;7.524;2023-12-20T09:24:28;17.60;;;10.37;;
21181;SDS011;10749;46.296;7.524;2023-12-20T09:26:55;15.23;;;10.33;;
21181;SDS011;10749;46.296;7.524;2023-12-20T09:29:20;13.53;;;9.40;;
21181;SDS011;10749;46.296;7.524;2023-12-20T09:31:45;13.67;;;9.70;;
21181;SDS011;10749;46.296;7.524;2023-12-20T09:34:11;13.37;;;9.20;;
21181;SDS011;10749;46.296;7.524;2023-12-20T09:36:36;13.97;;;9.30;;
21181;SDS011;10749;46.296;7.524;2023-12-20T09:39:03;13.60;;;9.43;;
21181;SDS011;10749;46.296;7.524;2023-12-20T09:41:30;11.33;;;8.47;;
21181;SDS011;10749;46.296;7.524;2023-12-20T09:43:59;15.47;;;9.57;;
21181;SDS011;10749;46.296;7.524;2023-12-20T09:46:27;16.73;;;10.30;;
21181;SDS011;10749;46.296;7.524;2023-12-20T09:48:56;12.93;;;8.83;;
21181;SDS011;10749;46.296;7.524;2023-12-20T09:51:25;11.37;;;8.00;;
21181;SDS011;10749;46.296;7.524;2023-12-20T09:53:53;10.93;;;7.40;;
21181;SDS011;10749;46.296;7.524;2023-12-20T09:56:20;12.47;;;8.00;;
21181;SDS011;10749;46.296;7.524;2023-12-20T09:58:46;10.63;;;7.53;;
21181;SDS011;10749;46.296;7.524;2023-12-20T10:01:12;10.87;;;7.73;;
21181;SDS011;10749;46.296;7.524;2023-12-20T10:03:37;11.83;;;7.93;;
21181;SDS011;10749;46.296;7.524;2023-12-20T10:06:05;12.40;;;8.27;;
21181;SDS011;10749;46.296;7.524;2023-12-20T10:08:31;15.17;;;9.43;;
21181;SDS011;10749;46.296;7.524;2023-12-20T10:10:57;16.07;;;10.10;;
21181;SDS011;10749;46.296;7.524;2023-12-20T10:13:27;17.37;;;9.27;;
21181;SDS011;10749;46.296;7.524;2023-12-20T10:15:52;12.50;;;8.77;;
21181;SDS011;10749;46.296;7.524;2023-12-20T10:18:20;10.80;;;8.17;;
21181;SDS011;10749;46.296;7.524;2023-12-20T10:20:45;13.87;;;9.50;;
21181;SDS011;10749;46.296;7.524;2023-12-20T10:23:11;10.70;;;7.70;;
21181;SDS011;10749;46.296;7.524;2023-12-20T10:25:37;12.30;;;8.87;;
21181;SDS011;10749;46.296;7.524;2023-12-20T10:28:12;14.97;;;9.23;;
21181;SDS011;10749;46.296;7.524;2023-12-20T10:30:44;13.53;;;9.23;;
21181;SDS011;10749;46.296;7.524;2023-12-20T10:33:09;13.63;;;9.63;;
21181;SDS011;10749;46.296;7.524;2023-12-20T10:35:35;13.53;;;9.73;;
21181;SDS011;10749;46.296;7.524;2023-12-20T10:38:03;14.90;;;9.33;;
21181;SDS011;10749;46.296;7.524;2023-12-20T10:40:30;13.27;;;8.50;;
21181;SDS011;10749;46.296;7.524;2023-12-20T10:42:56;12.97;;;9.00;;
21181;SDS011;10749;46.296;7.524;2023-12-20T10:45:23;12.63;;;8.10;;
21181;SDS011;10749;46.296;7.524;2023-12-20T10:47:48;12.20;;;8.23;;
21181;SDS011;10749;46.296;7.524;2023-12-20T10:50:15;14.90;;;9.80;;
21181;SDS011;10749;46.296;7.524;2023-12-20T10:52:40;13.73;;;9.43;;
21181;SDS011;10749;46.296;7.524;2023-12-20T10:55:07;13.90;;;8.80;;
21181;SDS011;10749;46.296;7.524;2023-12-20T10:57:33;11.73;;;8.10;;
21181;SDS011;10749;46.296;7.524;2023-12-20T11:00:01;17.40;;;11.73;;
21181;SDS011;10749;46.296;7.524;2023-12-20T11:02:29;11.33;;;8.73;;
21181;SDS011;10749;46.296;7.524;2023-12-20T11:10:10;10.90;;;7.37;;
21181;SDS011;10749;46.296;7.524;2023-12-20T11:12:46;10.70;;;7.10;;
21181;SDS011;10749;46.296;7.524;2023-12-20T11:15:20;12.63;;;7.80;;
21181;SDS011;10749;46.296;7.524;2023-12-20T11:17:46;10.83;;;8.23;;
21181;SDS011;10749;46.296;7.524;2023-12-20T11:20:19;12.50;;;8.03;;
21181;SDS011;10749;46.296;7.524;2023-12-20T11:22:52;10.93;;;8.00;;
21181;SDS011;10749;46.296;7.524;2023-12-20T11:25:21;10.87;;;7.07;;
21181;SDS011;10749;46.296;7.524;2023-12-20T11:28:06;12.77;;;7.07;;
21181;SDS011;10749;46.296;7.524;2023-12-20T11:30:42;12.87;;;7.87;;
21181;SDS011;10749;46.296;7.524;2023-12-20T11:33:10;10.90;;;7.53;;
21181;SDS011;10749;46.296;7.524;2023-12-20T11:35:35;10.67;;;7.13;;
21181;SDS011;10749;46.296;7.524;2023-12-20T11:38:02;7.43;;;5.50;;
21181;SDS011;10749;46.296;7.524;2023-12-20T11:40:27;9.93;;;7.03;;
21181;SDS011;10749;46.296;7.524;2023-12-20T11:42:52;8.30;;;5.57;;
21181;SDS011;10749;46.296;7.524;2023-12-20T11:45:23;6.07;;;4.87;;
21181;SDS011;10749;46.296;7.524;2023-12-20T11:47:51;8.13;;;4.90;;
21181;SDS011;10749;46.296;7.524;2023-12-20T11:50:19;6.67;;;4.43;;
21181;SDS011;10749;46.296;7.524;2023-12-20T11:52:45;6.33;;;4.17;;
21181;SDS011;10749;46.296;7.524;2023-12-20T11:55:10;6.97;;;4.37;;
21181;SDS011;10749;46.296;7.524;2023-12-20T11:57:36;6.97;;;4.27;;
21181;SDS011;10749;46.296;7.524;2023-12-20T12:00:02;6.57;;;4.50;;
21181;SDS011;10749;46.296;7.524;2023-12-20T12:02:28;7.90;;;4.87;;
21181;SDS011;10749;46.296;7.524;2023-12-20T12:04:53;9.53;;;4.50;;
21181;SDS011;10749;46.296;7.524;2023-12-20T12:07:20;5.13;;;3.77;;
21181;SDS011;10749;46.296;7.524;2023-12-20T12:09:45;5.07;;;3.80;;
21181;SDS011;10749;46.296;7.524;2023-12-20T12:12:11;4.47;;;3.53;;
21181;SDS011;10749;46.296;7.524;2023-12-20T12:14:37;6.37;;;3.33;;
21181;SDS011;10749;46.296;7.524;2023-12-20T12:17:03;3.63;;;2.70;;
21181;SDS011;10749;46.296;7.524;2023-12-20T12:19:29;2.90;;;2.30;;
21181;SDS011;10749;46.296;7.524;2023-12-20T12:22:15;2.40;;;1.77;;
21181;SDS011;10749;46.296;7.524;2023-12-20T12:27:10;2.47;;;1.77;;
21181;SDS011;10749;46.296;7.524;2023-12-20T12:29:36;3.40;;;1.90;;
21181;SDS011;10749;46.296;7.524;2023-12-20T12:32:08;3.43;;;2.50;;
21181;SDS011;10749;46.296;7.524;2023-12-20T12:34:34;2.60;;;1.90;;
21181;SDS011;10749;46.296;7.524;2023-12-20T12:37:01;3.10;;;2.03;;
21181;SDS011;10749;46.296;7.524;2023-12-20T12:39:27;2.27;;;1.90;;
21181;SDS011;10749;46.296;7.524;2023-12-20T12:41:54;2.40;;;1.70;;
21181;SDS011;10749;46.296;7.524;2023-12-20T12:44:20;3.33;;;1.93;;
21181;SDS011;10749;46.296;7.524;2023-12-20T12:46:47;2.27;;;1.80;;
21181;SDS011;10749;46.296;7.524;2023-12-20T12:49:16;4.57;;;2.07;;
21181;SDS011;10749;46.296;7.524;2023-12-20T12:51:41;2.30;;;1.53;;
21181;SDS011;10749;46.296;7.524;2023-12-20T12:54:07;2.77;;;1.60;;
21181;SDS011;10749;46.296;7.524;2023-12-20T12:56:33;2.93;;;1.90;;
21181;SDS011;10749;46.296;7.524;2023-12-20T12:58:59;3.67;;;1.70;;
21181;SDS011;10749;46.296;7.524;2023-12-20T13:01:24;1.80;;;1.60;;
21181;SDS011;10749;46.296;7.524;2023-12-20T13:03:50;2.00;;;1.50;;
21181;SDS011;10749;46.296;7.524;2023-12-20T13:06:15;3.20;;;1.53;;
21181;SDS011;10749;46.296;7.524;2023-12-20T13:08:40;2.33;;;1.40;;
21181;SDS011;10749;46.296;7.524;2023-12-20T13:11:06;2.20;;;1.30;;
21181;SDS011;10749;46.296;7.524;2023-12-20T13:13:32;2.10;;;1.30;;
21181;SDS011;10749;46.296;7.524;2023-12-20T13:15:57;2.13;;;1.30;;
21181;SDS011;10749;46.296;7.524;2023-12-20T13:18:22;2.27;;;1.53;;
21181;SDS011;10749;46.296;7.524;2023-12-20T13:20:48;2.80;;;1.40;;
21181;SDS011;10749;46.296;7.524;2023-12-20T13:23:13;1.60;;;1.10;;
21181;SDS011;10749;46.296;7.524;2023-12-20T13:25:39;2.37;;;1.13;;
21181;SDS011;10749;46.296;7.524;2023-12-20T13:28:05;2.13;;;1.10;;
21181;SDS011;10749;46.296;7.524;2023-12-20T13:30:31;1.50;;;1.00;;
21181;SDS011;10749;46.296;7.524;2023-12-20T13:32:56;1.63;;;0.90;;
21181;SDS011;10749;46.296;7.524;2023-12-20T13:35:21;1.77;;;0.80;;
21181;SDS011;10749;46.296;7.524;2023-12-20T13:37:47;2.07;;;1.00;;
21181;SDS011;10749;46.296;7.524;2023-12-20T13:40:12;1.37;;;0.97;;
21181;SDS011;10749;46.296;7.524;2023-12-20T13:42:38;3.17;;;1.00;;
21181;SDS011;10749;46.296;7.524;2023-12-20T13:45:04;1.57;;;0.60;;
21181;SDS011;10749;46.296;7.524;2023-12-20T13:47:30;2.13;;;0.57;;
21181;SDS011;10749;46.296;7.524;2023-12-20T13:49:56;1.40;;;0.70;;
21181;SDS011;10749;46.296;7.524;2023-12-20T13:52:21;1.43;;;0.60;;
21181;SDS011;10749;46.296;7.524;2023-12-20T13:54:47;1.10;;;0.57;;
21181;SDS011;10749;46.296;7.524;2023-12-20T13:57:12;2.00;;;0.60;;
21181;SDS011;10749;46.296;7.524;2023-12-20T13:59:38;2.20;;;0.70;;
21181;SDS011;10749;46.296;7.524;2023-12-20T14:02:03;1.13;;;0.57;;
21181;SDS011;10749;46.296;7.524;2023-12-20T14:04:28;3.50;;;0.70;;
21181;SDS011;10749;46.296;7.524;2023-12-20T14:06:54;1.00;;;0.50;;
21181;SDS011;10749;46.296;7.524;2023-12-20T14:09:19;1.53;;;0.63;;
21181;SDS011;10749;46.296;7.524;2023-12-20T14:11:44;0.90;;;0.60;;
21181;SDS011;10749;46.296;7.524;2023-12-20T14:14:10;2.17;;;0.67;;
21181;SDS011;10749;46.296;7.524;2023-12-20T14:16:36;1.20;;;0.60;;
21181;SDS011;10749;46.296;7.524;2023-12-20T14:19:01;1.30;;;0.43;;
21181;SDS011;10749;46.296;7.524;2023-12-20T14:21:28;1.80;;;0.60;;
21181;SDS011;10749;46.296;7.524;2023-12-20T14:23:53;1.13;;;0.70;;
21181;SDS011;10749;46.296;7.524;2023-12-20T14:26:18;2.17;;;0.60;;
21181;SDS011;10749;46.296;7.524;2023-12-20T14:28:44;0.87;;;0.53;;
21181;SDS011;10749;46.296;7.524;2023-12-20T14:31:09;0.83;;;0.70;;
21181;SDS011;10749;46.296;7.524;2023-12-20T14:33:35;1.70;;;0.60;;
21181;SDS011;10749;46.296;7.524;2023-12-20T14:36:01;1.67;;;0.73;;
21181;SDS011;10749;46.296;7.524;2023-12-20T14:38:28;1.87;;;0.70;;
21181;SDS011;10749;46.296;7.524;2023-12-20T14:40:53;3.47;;;0.77;;